Time;durP1;ratioP1;P1;durP2;ratioP2;P2;SDS_P1;SDS_P2;PMS_P1;PMS_P2;Temp;Humidity;BMP_temperature;BMP_pressure;BME280_temperature;BME280_humidity;BME280_pressure;Samples;Min_cycle;Max_cycle;Signal;HPM_P1;HPM_P2
2021/07/18 00:02:25;;;;;;;6.65;3.35;;;19.60;94.20;;;;;;5042169;28;20497;-58
2021/07/18 00:04:52;;;;;;;8.80;3.80;;;19.60;94.10;;;;;;5040854;28;20146;-60
2021/07/18 00:07:18;;;;;;;8.30;4.57;;;19.50;94.10;;;;;;5045536;28;20025;-59
2021/07/18 00:09:43;;;;;;;8.05;3.85;;;19.60;94.20;;;;;;5048354;28;20100;-60
2021/07/18 00:12:09;;;;;;;7.60;3.83;;;19.50;94.10;;;;;;5045085;28;20032;-57
2021/07/18 00:14:34;;;;;;;7.93;3.80;;;19.50;94.20;;;;;;5044786;28;20527;-60
2021/07/18 00:17:00;;;;;;;8.00;3.80;;;19.30;94.40;;;;;;5041499;28;20033;-60
2021/07/18 00:19:26;;;;;;;7.25;3.38;;;19.30;94.20;;;;;;5047880;28;20490;-60
2021/07/18 00:21:51;;;;;;;5.03;3.20;;;19.30;94.30;;;;;;5040494;28;20056;-60
2021/07/18 00:24:17;;;;;;;7.43;4.00;;;19.20;94.20;;;;;;5045818;28;20029;-59
2021/07/18 00:26:42;;;;;;;6.32;3.50;;;19.30;94.00;;;;;;5041103;28;20059;-59
2021/07/18 00:29:08;;;;;;;5.88;3.90;;;19.20;94.20;;;;;;5049899;28;20056;-58
2021/07/18 00:31:34;;;;;;;12.75;4.13;;;19.00;94.20;;;;;;5033860;28;20038;-60
2021/07/18 00:33:59;;;;;;;6.00;4.30;;;19.00;94.40;;;;;;5032151;28;20037;-59
2021/07/18 00:36:25;;;;;;;7.15;4.07;;;19.10;94.20;;;;;;5040581;28;20480;-60
2021/07/18 00:38:51;;;;;;;9.27;4.07;;;19.00;94.30;;;;;;5051800;28;20394;-59
2021/07/18 00:41:16;;;;;;;6.78;3.67;;;18.90;94.30;;;;;;5051792;28;20525;-59
2021/07/18 00:43:42;;;;;;;10.20;3.50;;;18.80;94.50;;;;;;5052194;28;20048;-58
2021/07/18 00:46:07;;;;;;;8.77;4.05;;;18.90;94.30;;;;;;5051785;28;20053;-58
2021/07/18 00:48:34;;;;;;;8.23;3.60;;;18.80;94.30;;;;;;5051593;28;20029;-60
2021/07/18 00:51:00;;;;;;;7.93;3.47;;;18.70;94.40;;;;;;5051131;28;20076;-60
2021/07/18 00:53:26;;;;;;;6.65;3.53;;;18.80;94.30;;;;;;5052027;28;20075;-59
2021/07/18 00:55:52;;;;;;;6.53;4.03;;;18.80;94.10;;;;;;5051612;28;20048;-59
2021/07/18 00:58:18;;;;;;;7.75;3.97;;;18.60;94.50;;;;;;5052228;28;20037;-61
2021/07/18 01:00:43;;;;;;;7.55;3.78;;;18.50;94.60;;;;;;5052685;28;20158;-60
2021/07/18 01:03:09;;;;;;;10.38;4.00;;;18.70;94.20;;;;;;5037212;28;20108;-61
2021/07/18 01:05:35;;;;;;;4.65;3.50;;;18.70;94.40;;;;;;5034558;28;20046;-61
2021/07/18 01:08:02;;;;;;;7.53;4.00;;;18.60;94.40;;;;;;5045467;28;20021;-60
2021/07/18 01:10:27;;;;;;;6.88;3.78;;;18.60;94.30;;;;;;5046487;28;20029;-60
2021/07/18 01:12:53;;;;;;;7.07;3.50;;;18.60;94.40;;;;;;5043375;28;20033;-61
2021/07/18 01:15:19;;;;;;;7.80;3.55;;;18.50;94.50;;;;;;5046607;28;20095;-60
2021/07/18 01:17:45;;;;;;;10.07;3.63;;;18.40;94.40;;;;;;5047088;28;20085;-59
2021/07/18 01:20:12;;;;;;;5.68;3.47;;;18.40;94.50;;;;;;5054134;28;20492;-58
2021/07/18 01:22:40;;;;;;;6.47;3.65;;;18.40;94.60;;;;;;5053837;28;20021;-59
2021/07/18 01:25:08;;;;;;;5.78;3.78;;;18.40;94.60;;;;;;5044727;28;20038;-61
2021/07/18 01:27:35;;;;;;;9.35;3.90;;;18.30;94.70;;;;;;5047638;28;20404;-59
2021/07/18 01:30:01;;;;;;;8.15;3.85;;;18.20;94.80;;;;;;5055102;28;20057;-60
2021/07/18 01:32:26;;;;;;;6.75;3.60;;;18.20;94.80;;;;;;5053816;28;20056;-59
2021/07/18 01:34:52;;;;;;;8.95;4.10;;;18.00;95.20;;;;;;5055110;28;20446;-61
2021/07/18 01:37:18;;;;;;;8.70;4.07;;;18.10;95.10;;;;;;5054235;28;20041;-60
2021/07/18 01:39:44;;;;;;;11.77;3.83;;;18.10;94.90;;;;;;5054601;28;20405;-59
2021/07/18 01:42:10;;;;;;;8.45;3.85;;;18.00;95.00;;;;;;5054921;28;20033;-61
2021/07/18 01:44:36;;;;;;;9.40;4.43;;;18.00;95.10;;;;;;5053612;28;20037;-61
2021/07/18 01:47:02;;;;;;;8.30;3.95;;;18.00;95.10;;;;;;5054476;28;20045;-60
2021/07/18 01:49:27;;;;;;;9.85;4.15;;;18.00;95.10;;;;;;5054874;28;20047;-58
2021/07/18 01:51:53;;;;;;;10.77;4.30;;;18.00;95.20;;;;;;5053743;28;20393;-59
2021/07/18 01:54:19;;;;;;;7.20;3.92;;;18.00;95.10;;;;;;5054831;28;20048;-61
2021/07/18 01:56:44;;;;;;;5.47;3.75;;;17.90;95.30;;;;;;5054196;28;20540;-61
2021/07/18 01:59:12;;;;;;;6.38;3.78;;;17.90;95.30;;;;;;5054602;28;20057;-61
2021/07/18 02:01:37;;;;;;;7.75;3.50;;;17.90;95.30;;;;;;5054903;28;20064;-60
2021/07/18 02:04:04;;;;;;;7.57;3.90;;;18.00;95.30;;;;;;5055172;28;20056;-60
2021/07/18 02:06:31;;;;;;;7.28;3.63;;;18.00;95.20;;;;;;5054122;28;20381;-61
2021/07/18 02:08:58;;;;;;;6.20;3.42;;;17.90;95.30;;;;;;5054705;28;20040;-59
2021/07/18 02:11:24;;;;;;;6.78;4.25;;;17.90;95.50;;;;;;5054748;28;20523;-60
2021/07/18 02:13:55;;;;;;;7.32;3.58;;;17.80;95.70;;;;;;5036681;28;20122;-60
2021/07/18 02:16:21;;;;;;;6.13;4.15;;;17.80;95.60;;;;;;5054478;28;20041;-60
2021/07/18 02:18:48;;;;;;;6.63;3.92;;;17.90;95.60;;;;;;5050226;28;20049;-61
2021/07/18 02:21:15;;;;;;;8.48;3.85;;;17.80;95.80;;;;;;5034115;28;20094;-61
2021/07/18 02:23:40;;;;;;;8.27;4.25;;;17.80;95.80;;;;;;5033833;28;20034;-59
2021/07/18 02:26:06;;;;;;;9.40;3.90;;;17.80;96.00;;;;;;5034436;28;20168;-61
2021/07/18 02:28:32;;;;;;;8.25;4.30;;;17.60;96.30;;;;;;5033984;28;20030;-59
2021/07/18 02:30:58;;;;;;;7.18;4.47;;;17.70;96.20;;;;;;5034167;28;20724;-60
2021/07/18 02:33:24;;;;;;;6.47;3.88;;;17.80;96.20;;;;;;5032966;28;20033;-61
2021/07/18 02:35:51;;;;;;;6.18;4.03;;;17.70;96.20;;;;;;5033895;28;20038;-60
2021/07/18 02:38:16;;;;;;;8.55;4.60;;;17.70;96.20;;;;;;5034114;28;20042;-60
2021/07/18 02:40:42;;;;;;;5.85;4.25;;;17.70;96.50;;;;;;5034246;28;20083;-59
2021/07/18 02:43:07;;;;;;;7.43;5.13;;;17.70;96.40;;;;;;5034105;28;20034;-60
2021/07/18 02:45:33;;;;;;;8.07;4.60;;;17.60;96.50;;;;;;5035083;28;20137;-60
2021/07/18 02:47:59;;;;;;;8.25;5.00;;;17.50;96.90;;;;;;5033762;28;20057;-58
2021/07/18 02:50:28;;;;;;;7.47;4.50;;;17.40;97.20;;;;;;5034378;28;20041;-60
2021/07/18 02:52:54;;;;;;;9.48;4.25;;;17.40;97.10;;;;;;5041045;28;20072;-59
2021/07/18 02:55:20;;;;;;;10.90;4.80;;;17.30;97.40;;;;;;5053612;28;20040;-56
2021/07/18 02:57:47;;;;;;;9.20;4.53;;;17.50;97.10;;;;;;5053785;28;20033;-61
2021/07/18 03:00:15;;;;;;;7.20;4.40;;;17.50;97.20;;;;;;5053780;28;20120;-61
2021/07/18 03:02:42;;;;;;;8.63;5.00;;;17.50;97.20;;;;;;5053280;28;20396;-61
2021/07/18 03:05:10;;;;;;;10.57;4.55;;;17.40;97.30;;;;;;5053768;28;20044;-61
2021/07/18 03:07:37;;;;;;;8.50;4.72;;;17.30;97.60;;;;;;5042389;28;20042;-60
2021/07/18 03:10:03;;;;;;;7.75;4.60;;;17.40;97.40;;;;;;5035989;28;20082;-61
2021/07/18 03:12:31;;;;;;;7.93;4.70;;;17.40;97.50;;;;;;5043047;28;20045;-61
2021/07/18 03:14:58;;;;;;;8.60;4.85;;;17.40;97.70;;;;;;5047136;28;20033;-59
2021/07/18 03:17:23;;;;;;;7.82;4.75;;;17.40;97.60;;;;;;5015398;28;20065;-59
2021/07/18 03:19:49;;;;;;;9.20;5.20;;;17.40;97.70;;;;;;5033240;28;20126;-60
2021/07/18 03:22:14;;;;;;;7.63;4.35;;;17.40;97.50;;;;;;5032414;28;20056;-61
2021/07/18 03:24:40;;;;;;;8.57;5.10;;;17.50;97.60;;;;;;5032668;28;20034;-61
2021/07/18 03:27:05;;;;;;;8.98;5.93;;;17.40;97.60;;;;;;5033000;28;20048;-61
2021/07/18 03:29:31;;;;;;;11.18;5.35;;;17.40;97.80;;;;;;5033105;28;20120;-60
2021/07/18 03:31:57;;;;;;;8.15;4.70;;;17.30;97.80;;;;;;5032916;28;20075;-59
2021/07/18 03:34:22;;;;;;;11.57;5.07;;;17.30;98.00;;;;;;5018222;28;20053;-58
2021/07/18 03:36:48;;;;;;;7.22;4.82;;;17.40;97.90;;;;;;5032495;28;20061;-58
2021/07/18 03:39:13;;;;;;;10.88;5.25;;;17.40;97.80;;;;;;5033124;28;20037;-61
2021/07/18 03:41:39;;;;;;;6.35;4.68;;;17.40;97.90;;;;;;5033049;28;20397;-60
2021/07/18 03:44:04;;;;;;;8.95;5.30;;;17.40;97.90;;;;;;5037375;28;20521;-59
2021/07/18 03:46:30;;;;;;;6.88;4.97;;;17.30;97.90;;;;;;5048768;28;20037;-60
2021/07/18 03:48:56;;;;;;;12.48;5.97;;;17.40;98.00;;;;;;5033212;28;20485;-61
2021/07/18 03:51:21;;;;;;;8.90;5.72;;;17.10;98.50;;;;;;5032020;28;20061;-60
2021/07/18 03:53:47;;;;;;;10.55;5.68;;;17.10;98.60;;;;;;5035047;28;20036;-60
2021/07/18 03:56:12;;;;;;;9.73;5.40;;;16.90;99.10;;;;;;5051365;28;20154;-61
2021/07/18 03:58:38;;;;;;;8.88;5.55;;;16.90;99.10;;;;;;5051765;28;20029;-58
2021/07/18 04:01:09;;;;;;;10.52;5.60;;;17.10;98.80;;;;;;5052611;28;20033;-60
2021/07/18 04:03:35;;;;;;;10.60;5.18;;;17.20;98.60;;;;;;5052944;28;20556;-59
2021/07/18 04:06:03;;;;;;;9.45;5.78;;;17.40;98.30;;;;;;5034027;28;20175;-59
2021/07/18 04:08:29;;;;;;;13.48;5.80;;;17.40;98.30;;;;;;5053298;28;20037;-58
2021/07/18 04:10:54;;;;;;;12.90;6.15;;;17.30;98.40;;;;;;5052580;28;20036;-61
2021/07/18 04:13:20;;;;;;;9.60;5.88;;;17.30;98.50;;;;;;5052347;28;20028;-60
2021/07/18 04:15:45;;;;;;;12.15;6.32;;;17.40;98.40;;;;;;5036401;28;20060;-61
2021/07/18 04:18:11;;;;;;;10.15;6.22;;;17.30;98.40;;;;;;5044803;28;20025;-60
2021/07/18 04:20:38;;;;;;;11.45;5.82;;;17.40;98.50;;;;;;5032539;28;20040;-61
2021/07/18 04:23:04;;;;;;;8.70;6.10;;;17.30;98.50;;;;;;5032417;28;20124;-59
2021/07/18 04:25:30;;;;;;;11.00;6.97;;;17.40;98.50;;;;;;5030342;28;20564;-60
2021/07/18 04:27:55;;;;;;;15.95;6.85;;;17.40;98.50;;;;;;5031701;28;20041;-60
2021/07/18 04:30:22;;;;;;;10.43;6.60;;;17.40;98.40;;;;;;5032520;28;20021;-60
2021/07/18 04:32:48;;;;;;;13.60;6.97;;;17.30;98.70;;;;;;5032425;28;20033;-61
2021/07/18 04:35:14;;;;;;;11.75;6.72;;;17.20;99.00;;;;;;5032661;28;20456;-61
2021/07/18 04:37:40;;;;;;;10.32;7.15;;;17.30;98.80;;;;;;5031161;28;20025;-60
2021/07/18 04:40:07;;;;;;;15.82;7.70;;;17.40;98.60;;;;;;5032164;28;20033;-60
2021/07/18 04:42:47;;;;;;;10.18;7.22;;;17.30;98.80;;;;;;5033056;28;20032;-61
2021/07/18 04:45:14;;;;;;;10.95;8.05;;;17.40;98.90;;;;;;5031608;28;20025;-60
2021/07/18 04:47:54;;;;;;;12.23;7.72;;;17.40;98.60;;;;;;5031690;28;20036;-60
2021/07/18 04:50:21;;;;;;;12.43;7.47;;;17.50;98.70;;;;;;5032133;28;20026;-58
2021/07/18 04:52:47;;;;;;;10.55;7.32;;;17.50;98.70;;;;;;5038270;28;20047;-61
2021/07/18 04:55:15;;;;;;;12.32;7.03;;;17.50;98.60;;;;;;5050698;28;20546;-58
2021/07/18 04:57:41;;;;;;;12.98;7.63;;;17.50;98.70;;;;;;5051106;28;20520;-60
2021/07/18 05:00:08;;;;;;;15.80;8.43;;;17.60;98.50;;;;;;5051944;28;20036;-59
2021/07/18 05:02:34;;;;;;;13.32;8.30;;;17.50;98.80;;;;;;5048382;28;20046;-59
2021/07/18 05:05:00;;;;;;;14.20;8.38;;;17.40;98.80;;;;;;5049745;28;20032;-60
2021/07/18 05:07:25;;;;;;;13.20;8.68;;;17.50;98.50;;;;;;5071408;28;20043;-60
2021/07/18 05:09:51;;;;;;;13.43;8.25;;;17.60;98.60;;;;;;5035804;28;20053;-60
2021/07/18 05:12:17;;;;;;;12.45;8.07;;;17.50;98.70;;;;;;5049474;28;20040;-63
2021/07/18 05:14:45;;;;;;;13.75;8.00;;;17.70;98.40;;;;;;5039262;28;20086;-60
2021/07/18 05:17:12;;;;;;;10.65;8.23;;;18.00;98.10;;;;;;5036556;28;20051;-58
2021/07/18 05:19:38;;;;;;;15.82;11.10;;;17.90;98.10;;;;;;5039765;28;20041;-60
2021/07/18 05:22:04;;;;;;;18.30;12.57;;;17.80;98.10;;;;;;5031749;28;20140;-59
2021/07/18 05:24:29;;;;;;;15.98;10.75;;;17.70;98.40;;;;;;5031303;28;20029;-59
2021/07/18 05:26:55;;;;;;;15.20;11.93;;;17.90;98.20;;;;;;5039471;28;20083;-61
2021/07/18 05:29:20;;;;;;;10.68;9.35;;;18.00;98.00;;;;;;5049633;28;20060;-59
2021/07/18 05:31:46;;;;;;;12.38;8.95;;;17.90;98.20;;;;;;5049517;28;20044;-58
2021/07/18 05:34:11;;;;;;;12.90;9.05;;;17.90;98.10;;;;;;5048481;28;20040;-59
2021/07/18 05:36:37;;;;;;;12.25;9.00;;;17.90;98.10;;;;;;5046661;28;20044;-58
2021/07/18 05:39:04;;;;;;;13.98;9.70;;;18.00;98.10;;;;;;5049417;28;20037;-59
2021/07/18 05:41:30;;;;;;;14.27;10.25;;;18.20;97.90;;;;;;5051613;28;20476;-60
2021/07/18 05:43:56;;;;;;;10.10;8.75;;;18.00;98.30;;;;;;5051269;28;20045;-60
2021/07/18 05:46:22;;;;;;;13.05;9.25;;;17.80;98.60;;;;;;5051152;28;20044;-61
2021/07/18 05:48:47;;;;;;;16.70;9.55;;;17.80;98.70;;;;;;5054970;28;20049;-62
2021/07/18 05:51:13;;;;;;;11.13;8.68;;;18.00;98.40;;;;;;5055023;28;20122;-58
2021/07/18 05:53:39;;;;;;;13.35;9.63;;;18.20;97.90;;;;;;5055306;28;20029;-59
2021/07/18 05:56:05;;;;;;;10.77;9.20;;;18.20;98.10;;;;;;5054657;28;20388;-59
2021/07/18 05:58:31;;;;;;;12.57;8.88;;;18.30;97.80;;;;;;5054449;28;20083;-60
2021/07/18 06:00:56;;;;;;;14.77;9.73;;;18.30;97.90;;;;;;5055295;28;20029;-60
2021/07/18 06:03:22;;;;;;;11.82;9.07;;;18.30;97.70;;;;;;5055117;28;20028;-60
2021/07/18 06:05:47;;;;;;;14.07;9.32;;;18.30;97.70;;;;;;5055316;28;20043;-59
2021/07/18 06:08:13;;;;;;;11.35;8.70;;;18.20;98.10;;;;;;5054867;28;20511;-60
2021/07/18 06:10:39;;;;;;;11.88;9.40;;;18.30;97.70;;;;;;5054986;28;20029;-60
2021/07/18 06:13:04;;;;;;;13.80;9.65;;;18.30;97.80;;;;;;5054917;28;20124;-59
2021/07/18 06:15:30;;;;;;;15.00;9.50;;;18.30;97.70;;;;;;5046493;28;20032;-61
2021/07/18 06:17:56;;;;;;;13.63;9.65;;;18.50;97.70;;;;;;5046511;28;20076;-61
2021/07/18 06:20:22;;;;;;;13.85;9.23;;;18.50;97.40;;;;;;5053165;28;20040;-59
2021/07/18 06:22:48;;;;;;;14.35;9.43;;;18.70;97.40;;;;;;5055098;28;20025;-60
2021/07/18 06:25:14;;;;;;;13.65;8.75;;;18.70;97.30;;;;;;5054505;28;20037;-60
2021/07/18 06:27:41;;;;;;;11.55;8.43;;;18.60;97.40;;;;;;5054333;28;20033;-61
2021/07/18 06:30:08;;;;;;;12.65;9.20;;;18.70;97.20;;;;;;5054747;28;20036;-61
2021/07/18 06:32:34;;;;;;;10.80;8.60;;;18.70;97.20;;;;;;5054633;28;20067;-60
2021/07/18 06:34:59;;;;;;;12.48;8.77;;;18.80;97.10;;;;;;5054499;28;20060;-60
2021/07/18 06:37:25;;;;;;;10.85;8.90;;;18.90;97.10;;;;;;5053712;28;20052;-60
2021/07/18 06:39:51;;;;;;;12.02;8.70;;;18.80;97.10;;;;;;5053947;28;20627;-61
2021/07/18 06:42:18;;;;;;;11.23;9.30;;;18.90;97.10;;;;;;5036529;28;20047;-60
2021/07/18 06:44:43;;;;;;;13.55;8.50;;;18.80;97.00;;;;;;5054777;28;20499;-60
2021/07/18 06:47:09;;;;;;;16.38;8.52;;;18.70;97.20;;;;;;5053547;28;20041;-59
2021/07/18 06:49:35;;;;;;;10.68;7.97;;;18.80;97.20;;;;;;5054379;28;20043;-58
2021/07/18 06:52:00;;;;;;;12.25;8.13;;;18.90;97.20;;;;;;5053401;28;20435;-60
2021/07/18 06:54:26;;;;;;;10.10;7.63;;;19.10;96.90;;;;;;5054192;28;20033;-58
2021/07/18 06:56:51;;;;;;;13.70;8.07;;;19.30;96.40;;;;;;5053175;28;20120;-60
2021/07/18 06:59:17;;;;;;;12.40;7.80;;;19.30;96.40;;;;;;5052794;28;20127;-61
2021/07/18 07:01:43;;;;;;;11.02;7.68;;;19.40;96.40;;;;;;5053627;28;20041;-60
2021/07/18 07:04:09;;;;;;;11.90;8.98;;;19.20;96.40;;;;;;5053754;28;20079;-61
2021/07/18 07:06:34;;;;;;;10.27;7.32;;;19.30;96.30;;;;;;5052918;28;20037;-60
2021/07/18 07:09:00;;;;;;;10.93;7.50;;;19.30;96.60;;;;;;5053298;28;20101;-58
2021/07/18 07:11:25;;;;;;;12.52;8.00;;;19.30;96.20;;;;;;5053596;28;20036;-59
2021/07/18 07:13:51;;;;;;;9.18;7.53;;;19.40;96.20;;;;;;5053796;28;20051;-60
2021/07/18 07:16:17;;;;;;;15.15;7.72;;;19.40;96.10;;;;;;5032441;28;20040;-60
2021/07/18 07:18:43;;;;;;;11.40;7.38;;;19.50;96.30;;;;;;5035662;28;20116;-61
2021/07/18 07:21:09;;;;;;;10.02;7.57;;;19.50;96.10;;;;;;5053589;28;20108;-60
2021/07/18 07:23:39;;;;;;;10.10;7.38;;;19.60;96.00;;;;;;5053265;28;20033;-60
2021/07/18 07:26:05;;;;;;;11.00;7.60;;;19.60;96.00;;;;;;5053046;28;20029;-58
2021/07/18 07:28:31;;;;;;;12.27;7.93;;;19.60;96.10;;;;;;5053227;28;20112;-60
2021/07/18 07:30:58;;;;;;;13.10;7.93;;;19.80;95.80;;;;;;5053550;28;20179;-61
2021/07/18 07:33:24;;;;;;;12.57;7.95;;;19.80;95.70;;;;;;5053422;28;20040;-59
2021/07/18 07:35:51;;;;;;;15.60;8.23;;;19.80;95.40;;;;;;5036114;28;20040;-60
2021/07/18 07:38:17;;;;;;;10.77;6.88;;;19.70;95.50;;;;;;5035274;28;20037;-60
2021/07/18 07:40:43;;;;;;;8.57;7.13;;;19.80;95.70;;;;;;5053013;28;20028;-61
2021/07/18 07:43:09;;;;;;;11.70;7.55;;;20.00;95.50;;;;;;5035767;28;20110;-60
2021/07/18 07:45:34;;;;;;;13.27;7.60;;;20.10;95.30;;;;;;5035106;28;20553;-59
2021/07/18 07:48:00;;;;;;;8.57;7.18;;;20.20;94.90;;;;;;5052593;28;20033;-62
2021/07/18 07:50:26;;;;;;;12.27;6.97;;;20.20;94.90;;;;;;5053025;28;20455;-61
2021/07/18 07:52:52;;;;;;;13.35;7.07;;;20.40;95.20;;;;;;5052904;28;20032;-60
2021/07/18 07:55:18;;;;;;;8.60;6.55;;;20.50;94.50;;;;;;5035148;28;20033;-60
2021/07/18 07:57:44;;;;;;;9.38;7.00;;;20.30;94.90;;;;;;5052437;28;20314;-60
2021/07/18 08:00:12;;;;;;;9.43;6.63;;;20.50;94.40;;;;;;5052796;28;20116;-58
2021/07/18 08:02:38;;;;;;;9.02;6.43;;;20.70;94.50;;;;;;5034927;28;20433;-60
2021/07/18 08:05:05;;;;;;;7.18;6.18;;;20.80;94.40;;;;;;5053115;28;20626;-60
2021/07/18 08:07:31;;;;;;;9.35;6.22;;;21.00;93.70;;;;;;5052407;28;20120;-61
2021/07/18 08:09:57;;;;;;;8.80;5.78;;;21.20;93.60;;;;;;5052919;28;20064;-61
2021/07/18 08:12:22;;;;;;;11.80;6.25;;;21.00;93.60;;;;;;5052716;28;20070;-60
2021/07/18 08:14:48;;;;;;;10.20;5.70;;;21.00;93.40;;;;;;5045023;28;20385;-61
2021/07/18 08:17:14;;;;;;;8.13;5.68;;;21.00;93.80;;;;;;5048561;28;20025;-58
2021/07/18 08:19:40;;;;;;;10.32;5.97;;;21.20;93.50;;;;;;5043242;28;20033;-62
2021/07/18 08:22:08;;;;;;;9.32;5.63;;;21.20;93.30;;;;;;5047145;28;20041;-60
2021/07/18 08:24:37;;;;;;;7.75;6.10;;;21.30;92.70;;;;;;5027345;28;20037;-61
2021/07/18 08:27:03;;;;;;;8.18;6.15;;;21.40;92.40;;;;;;5031970;28;20034;-60
2021/07/18 08:29:29;;;;;;;9.57;5.78;;;21.30;92.30;;;;;;5034634;28;20064;-61
2021/07/18 08:31:57;;;;;;;7.80;5.55;;;21.30;92.10;;;;;;5032624;28;20446;-62
2021/07/18 08:34:23;;;;;;;6.40;5.70;;;21.30;92.10;;;;;;5032080;28;20036;-60
2021/07/18 08:36:57;;;;;;;11.85;5.60;;;21.30;92.10;;;;;;5017345;28;20025;-63
2021/07/18 08:39:24;;;;;;;11.48;5.45;;;21.40;92.10;;;;;;5052491;28;20029;-61
2021/07/18 08:41:53;;;;;;;9.50;5.53;;;21.50;91.80;;;;;;5035300;28;20065;-63
2021/07/18 08:44:18;;;;;;;11.02;5.45;;;21.60;91.60;;;;;;5032390;28;20033;-61
2021/07/18 08:46:44;;;;;;;7.53;5.80;;;21.60;91.60;;;;;;5032363;28;20049;-60
2021/07/18 08:49:10;;;;;;;8.98;5.80;;;21.60;91.80;;;;;;5030631;28;20044;-61
2021/07/18 08:51:37;;;;;;;10.00;5.43;;;21.80;91.80;;;;;;5031266;28;20046;-60
2021/07/18 08:54:04;;;;;;;6.05;5.40;;;21.90;91.30;;;;;;5035548;28;20143;-61
2021/07/18 08:56:35;;;;;;;7.07;5.38;;;21.90;91.20;;;;;;5050322;28;20037;-61
2021/07/18 08:59:10;;;;;;;8.50;5.65;;;22.00;90.90;;;;;;5038090;28;20041;-61
2021/07/18 09:01:40;;;;;;;6.72;5.07;;;22.20;90.60;;;;;;5032320;28;20049;-61
2021/07/18 09:04:06;;;;;;;5.70;5.00;;;22.20;90.30;;;;;;5032135;28;20041;-61
2021/07/18 09:06:41;;;;;;;8.38;5.20;;;22.20;90.30;;;;;;5031723;28;20124;-62
2021/07/18 09:09:08;;;;;;;9.63;5.63;;;22.40;89.70;;;;;;5032338;28;20060;-62
2021/07/18 09:11:35;;;;;;;8.30;4.72;;;22.30;89.40;;;;;;5033376;28;20127;-60
2021/07/18 09:14:06;;;;;;;6.10;5.22;;;22.40;89.90;;;;;;5033377;28;20087;-61
2021/07/18 09:16:38;;;;;;;7.13;5.03;;;22.30;90.00;;;;;;5031669;28;20560;-61
2021/07/18 09:19:26;;;;;;;7.57;4.53;;;22.60;90.00;;;;;;5030664;28;20117;-61
2021/07/18 09:22:06;;;;;;;6.78;4.40;;;22.90;86.10;;;;;;5032261;28;20406;-62
2021/07/18 09:24:42;;;;;;;5.97;5.00;;;22.80;87.40;;;;;;5035255;28;20083;-60
2021/07/18 09:27:18;;;;;;;6.20;4.90;;;22.90;88.00;;;;;;5035374;28;20040;-61
2021/07/18 09:30:11;;;;;;;10.30;5.07;;;22.90;87.00;;;;;;5053213;28;20025;-60
2021/07/18 09:32:44;;;;;;;7.28;4.75;;;22.80;87.70;;;;;;5055811;28;20039;-61
2021/07/18 09:35:12;;;;;;;6.68;4.88;;;23.00;87.30;;;;;;5055630;28;20072;-61
2021/07/18 09:37:48;;;;;;;5.82;4.50;;;23.00;87.40;;;;;;5055498;28;20045;-61
2021/07/18 09:40:19;;;;;;;5.68;4.70;;;23.30;86.50;;;;;;5055801;28;20040;-63
2021/07/18 09:42:51;;;;;;;7.35;4.80;;;23.50;86.30;;;;;;5037106;28;20554;-61
2021/07/18 09:45:24;;;;;;;7.03;4.53;;;23.20;85.90;;;;;;5055529;28;20122;-63
2021/07/18 09:48:01;;;;;;;5.90;4.95;;;23.40;86.00;;;;;;5055091;28;20480;-62
2021/07/18 09:50:31;;;;;;;4.90;4.30;;;23.40;85.70;;;;;;5052748;28;20090;-62
2021/07/18 09:53:32;;;;;;;6.25;4.53;;;23.30;85.10;;;;;;5042980;28;20025;-62
2021/07/18 09:56:09;;;;;;;5.65;4.18;;;23.30;85.90;;;;;;4996441;28;20060;-64
2021/07/18 09:58:50;;;;;;;6.28;4.50;;;23.50;83.90;;;;;;5049297;28;20041;-63
2021/07/18 10:01:17;;;;;;;5.05;4.18;;;23.70;84.10;;;;;;5055118;28;20111;-63
2021/07/18 10:03:50;;;;;;;6.45;4.72;;;23.50;84.00;;;;;;5055120;28;20435;-61
2021/07/18 10:06:23;;;;;;;8.10;4.60;;;23.70;83.90;;;;;;5055295;28;20033;-64
2021/07/18 10:08:50;;;;;;;6.95;4.13;;;23.70;84.80;;;;;;5054456;28;20271;-61
2021/07/18 10:11:22;;;;;;;7.30;4.57;;;23.80;84.10;;;;;;5054807;28;20397;-63
2021/07/18 10:13:49;;;;;;;7.47;4.50;;;23.70;84.20;;;;;;5056638;28;20398;-61
2021/07/18 10:16:16;;;;;;;6.65;4.47;;;23.70;84.30;;;;;;5052364;28;20434;-61
2021/07/18 10:18:43;;;;;;;7.13;4.90;;;23.80;84.70;;;;;;5054453;28;20044;-62
2021/07/18 10:21:10;;;;;;;9.85;4.90;;;23.90;83.10;;;;;;5054884;28;20068;-63
2021/07/18 10:23:40;;;;;;;4.55;4.10;;;23.90;83.50;;;;;;5054400;28;20488;-65
2021/07/18 10:26:06;;;;;;;5.45;4.82;;;23.90;82.80;;;;;;5054628;28;20028;-62
2021/07/18 10:28:32;;;;;;;5.43;4.18;;;23.90;83.00;;;;;;5032254;28;20129;-57
2021/07/18 10:31:04;;;;;;;7.60;4.82;;;23.90;82.60;;;;;;5022761;28;20554;-58
2021/07/18 10:33:31;;;;;;;6.63;4.47;;;23.80;82.40;;;;;;5038015;28;20043;-57
2021/07/18 10:35:58;;;;;;;7.43;4.22;;;23.90;82.70;;;;;;5033575;28;20037;-60
2021/07/18 10:38:24;;;;;;;4.47;4.07;;;23.90;82.00;;;;;;5037252;28;20048;-55
2021/07/18 10:40:53;;;;;;;5.65;4.15;;;24.00;81.00;;;;;;5040875;28;20105;-58
2021/07/18 10:43:35;;;;;;;8.02;5.18;;;24.00;81.60;;;;;;5035604;28;20052;-55
2021/07/18 10:46:02;;;;;;;5.70;4.78;;;24.30;81.60;;;;;;5047370;28;20040;-55
2021/07/18 10:48:47;;;;;;;7.53;5.78;;;24.40;81.80;;;;;;5034485;28;20460;-56
2021/07/18 10:51:34;;;;;;;6.68;4.90;;;24.40;81.20;;;;;;5034295;28;20033;-55
2021/07/18 10:54:14;;;;;;;5.60;3.83;;;24.50;81.10;;;;;;5048295;28;20033;-54
2021/07/18 10:56:48;;;;;;;6.93;4.40;;;24.60;80.20;;;;;;5035900;28;20382;-57
2021/07/18 10:59:37;;;;;;;5.35;4.22;;;24.60;80.10;;;;;;5051709;28;20036;-55
2021/07/18 11:02:12;;;;;;;6.72;4.22;;;24.40;79.80;;;;;;5055304;28;20120;-60
2021/07/18 11:04:49;;;;;;;5.57;4.50;;;24.50;80.40;;;;;;5037144;28;20493;-63
2021/07/18 11:07:20;;;;;;;5.22;4.13;;;24.60;80.20;;;;;;5033860;28;20104;-56
2021/07/18 11:09:51;;;;;;;5.93;3.83;;;24.50;79.50;;;;;;5032756;28;20037;-56
2021/07/18 11:12:31;;;;;;;6.60;4.38;;;24.20;80.80;;;;;;5048203;28;20030;-56
2021/07/18 11:15:15;;;;;;;6.20;4.03;;;24.20;80.00;;;;;;5058242;28;20033;-53
2021/07/18 11:18:07;;;;;;;6.43;4.40;;;24.10;80.90;;;;;;5053119;28;20021;-54
2021/07/18 11:21:02;;;;;;;4.55;4.15;;;24.40;79.50;;;;;;5053147;28;20509;-52
2021/07/18 11:23:35;;;;;;;4.93;4.22;;;24.70;78.90;;;;;;5032279;28;20062;-55
2021/07/18 11:26:03;;;;;;;4.13;3.67;;;24.80;79.00;;;;;;5053299;28;20033;-59
2021/07/18 11:31:13;;;;;;;4.30;3.70;;;24.80;77.20;;;;;;5053811;28;20044;-58
2021/07/18 11:34:09;;;;;;;4.45;3.97;;;24.70;77.30;;;;;;5054309;28;20029;-58
2021/07/18 11:36:34;;;;;;;4.82;3.70;;;24.60;78.10;;;;;;5052671;28;20480;-58
2021/07/18 11:39:11;;;;;;;4.93;4.20;;;24.60;78.80;;;;;;5052916;28;20032;-55
2021/07/18 11:41:37;;;;;;;4.40;3.33;;;24.80;78.00;;;;;;5052679;28;20028;-52
2021/07/18 11:44:03;;;;;;;6.90;4.15;;;24.80;76.80;;;;;;5055628;28;20155;-56
2021/07/18 11:46:41;;;;;;;7.30;3.88;;;25.00;76.30;;;;;;5054180;28;20053;-55
2021/07/18 11:49:08;;;;;;;6.25;3.80;;;25.00;76.40;;;;;;5052846;28;20400;-54
2021/07/18 11:51:35;;;;;;;4.38;3.60;;;24.90;75.30;;;;;;5052809;28;20032;-54
2021/07/18 11:54:01;;;;;;;4.85;4.30;;;25.00;76.50;;;;;;5052336;28;20033;-65
2021/07/18 11:56:28;;;;;;;4.05;3.50;;;24.90;76.00;;;;;;5049593;28;20102;-57
2021/07/18 11:58:59;;;;;;;4.70;3.72;;;24.90;77.40;;;;;;5051136;28;20055;-57
2021/07/18 12:01:27;;;;;;;5.38;4.03;;;25.00;77.40;;;;;;5051839;28;20025;-61
2021/07/18 12:03:53;;;;;;;5.72;3.53;;;25.00;77.40;;;;;;5051375;28;20021;-59
2021/07/18 12:06:27;;;;;;;5.90;4.22;;;25.10;77.20;;;;;;5046101;28;20037;-59
2021/07/18 12:08:58;;;;;;;4.18;3.40;;;25.10;76.80;;;;;;5051185;28;20033;-60
2021/07/18 12:11:25;;;;;;;5.95;3.80;;;25.30;75.40;;;;;;5051742;28;20037;-60
2021/07/18 12:13:53;;;;;;;4.28;3.70;;;25.40;74.50;;;;;;5051409;28;20694;-62
2021/07/18 12:16:20;;;;;;;6.05;3.70;;;25.40;72.80;;;;;;5049256;28;20556;-61
2021/07/18 12:18:49;;;;;;;4.15;3.75;;;25.40;71.30;;;;;;5049161;28;20682;-60
2021/07/18 12:21:20;;;;;;;4.90;3.92;;;25.60;72.40;;;;;;5051379;28;20078;-60
2021/07/18 12:24:42;;;;;;;5.47;3.80;;;25.90;72.30;;;;;;5033602;28;20173;-59
2021/07/18 12:27:21;;;;;;;3.95;3.55;;;25.80;73.10;;;;;;4992506;28;20040;-62
2021/07/18 12:29:47;;;;;;;6.07;3.75;;;25.70;73.60;;;;;;5028882;28;20449;-61
2021/07/18 12:32:13;;;;;;;4.72;3.72;;;25.80;73.40;;;;;;5051031;28;20057;-61
2021/07/18 12:34:40;;;;;;;5.22;3.85;;;25.80;72.90;;;;;;5050882;28;20103;-61
2021/07/18 12:37:12;;;;;;;7.03;4.10;;;26.00;73.30;;;;;;5051049;28;20252;-61
2021/07/18 12:39:38;;;;;;;7.65;5.20;;;26.10;72.70;;;;;;5048661;28;20423;-60
2021/07/18 12:42:11;;;;;;;10.68;7.30;;;26.10;72.70;;;;;;5052067;28;20086;-62
2021/07/18 12:44:44;;;;;;;7.13;4.75;;;26.10;72.50;;;;;;5052321;28;20037;-55
2021/07/18 12:47:19;;;;;;;5.03;3.78;;;26.20;71.90;;;;;;5051667;28;20041;-57
2021/07/18 12:50:01;;;;;;;4.47;3.90;;;26.40;70.80;;;;;;5051632;28;20048;-58
2021/07/18 12:52:27;;;;;;;5.15;4.10;;;26.60;70.30;;;;;;5051552;28;20454;-60